Radford, Illinois
Current Conditions -  °F | °C
As of 10:54 PM on Friday 24 Oct 2014 (Local Time) from KDEC Reporting Station
Overcast Overcast  
Wind Chill: 60°   Ceiling: 3700
Heat Index: 60°   Visibility: 9mi
Dew Point: 54°   Wind: 8mph
Humidity: 80%   Direction: 200°SSW
Pressure: 30"   Gusts: NA
Location:  39.6032°N, 88.9855°W
Report Text: KDEC 250354Z AUTO 20007KT 9SM BKN037 OVC047 16/12 A3000 RMK AO2 SLP158 T01560122 TSNO
Loading
Personal Weather Stations






























Interactive Weather Map
Tropical Storm Tracking
New forecast layout! Learn more

10-Day Weather Forecast

Advertisements
Track Severe Weather on mobile